createdAt,value
2018-08-30T00:00:43.965Z,100128.12
2018-08-30T00:03:12.253Z,100136.30
2018-08-30T00:05:40.352Z,100140.03
2018-08-30T00:08:08.098Z,100147.47
2018-08-30T00:10:35.899Z,100148.36
2018-08-30T00:13:03.682Z,100154.48
2018-08-30T00:15:31.398Z,100157.48
2018-08-30T00:17:59.110Z,100159.42
2018-08-30T00:20:26.877Z,100164.98
2018-08-30T00:22:58.506Z,100167.80
2018-08-30T00:25:26.208Z,100168.84
2018-08-30T00:27:53.935Z,100166.98
2018-08-30T00:30:21.998Z,100176.86
2018-08-30T00:32:49.886Z,100181.22
2018-08-30T00:35:17.626Z,100185.22
2018-08-30T00:37:45.336Z,100187.44
2018-08-30T00:40:13.059Z,100186.83
2018-08-30T00:42:40.830Z,100186.83
2018-08-30T00:45:08.586Z,100188.35
2018-08-30T00:47:36.347Z,100194.91
2018-08-30T00:50:04.682Z,100197.29
2018-08-30T00:52:32.510Z,100201.94
2018-08-30T00:55:00.640Z,100204.75
2018-08-30T00:57:28.359Z,100203.83
2018-08-30T00:59:56.668Z,100210.85
2018-08-30T01:02:24.468Z,100213.22
2018-08-30T01:04:52.248Z,100213.30
2018-08-30T01:07:20.031Z,100222.45
2018-08-30T01:09:48.688Z,100221.20
2018-08-30T01:12:16.469Z,100222.91
2018-08-30T01:14:44.475Z,100230.13
2018-08-30T01:17:12.260Z,100237.80
2018-08-30T01:19:40.063Z,100227.97
2018-08-30T01:22:08.188Z,100229.17
2018-08-30T01:24:35.977Z,100236.20
2018-08-30T01:27:03.813Z,100231.08
2018-08-30T01:29:31.942Z,100240.83
2018-08-30T01:31:59.872Z,100232.12
2018-08-30T01:34:27.708Z,100234.05
2018-08-30T01:36:55.556Z,100238.27
2018-08-30T01:39:27.238Z,100241.74
2018-08-30T01:41:55.767Z,100242.20
2018-08-30T01:44:23.615Z,100249.56
2018-08-30T01:46:52.458Z,100251.05
2018-08-30T01:49:20.324Z,100252.84
2018-08-30T01:51:48.209Z,100248.92
2018-08-30T01:54:16.091Z,100253.43
2018-08-30T01:56:44.012Z,100257.42
2018-08-30T01:59:11.857Z,100262.41
2018-08-30T02:01:39.696Z,100267.16
2018-08-30T02:04:07.572Z,100270.77
2018-08-30T02:06:35.557Z,100267.59
2018-08-30T02:09:08.030Z,100270.47
2018-08-30T02:11:35.861Z,100274.84
2018-08-30T02:14:03.691Z,100275.06
2018-08-30T02:16:31.621Z,100273.80
2018-08-30T02:18:59.531Z,100275.55
2018-08-30T02:21:27.596Z,100276.30
2018-08-30T02:23:55.668Z,100283.30
2018-08-30T02:26:23.704Z,100280.09
2018-08-30T02:28:51.516Z,100281.66
2018-08-30T02:31:19.391Z,100285.19
2018-08-30T02:33:47.338Z,100282.37
2018-08-30T02:36:15.218Z,100279.52
2018-08-30T02:38:43.057Z,100274.56
2018-08-30T02:41:10.860Z,100273.30
2018-08-30T02:43:38.800Z,100263.84
2018-08-30T02:46:06.845Z,100267.98
2018-08-30T02:48:35.251Z,100264.73
2018-08-30T02:51:03.080Z,100277.18
2018-08-30T02:53:30.982Z,100269.30
2018-08-30T02:55:58.950Z,100269.21
2018-08-30T02:58:26.759Z,100261.56
2018-08-30T03:00:54.595Z,100259.72
2018-08-30T03:03:26.437Z,100256.67
2018-08-30T03:05:55.022Z,100257.03
2018-08-30T03:08:23.204Z,100261.46
2018-08-30T03:10:50.939Z,100265.28
2018-08-30T03:13:18.731Z,100263.38
2018-08-30T03:15:47.363Z,100268.33
2018-08-30T03:18:15.107Z,100268.91
2018-08-30T03:20:42.887Z,100274.57
2018-08-30T03:23:11.931Z,100278.91
2018-08-30T03:25:39.772Z,100280.05
2018-08-30T03:28:07.689Z,100281.32
2018-08-30T03:30:35.722Z,100280.16
2018-08-30T03:33:03.849Z,100279.19
2018-08-30T03:35:31.666Z,100289.62
2018-08-30T03:37:59.391Z,100287.22
2018-08-30T03:40:27.215Z,100293.09
2018-08-30T03:42:54.909Z,100284.83
2018-08-30T03:45:22.767Z,100287.64
2018-08-30T03:47:51.760Z,100291.67
2018-08-30T03:50:19.531Z,100283.95
2018-08-30T03:52:48.700Z,100283.14
2018-08-30T03:55:21.148Z,100288.40
2018-08-30T03:57:48.945Z,100278.81
2018-08-30T04:00:16.777Z,100279.81
2018-08-30T04:02:44.562Z,100284.31
2018-08-30T04:05:12.425Z,100289.84
2018-08-30T04:07:40.255Z,100279.38
2018-08-30T04:10:08.147Z,100285.89
2018-08-30T04:12:35.939Z,100289.47
2018-08-30T04:15:03.806Z,100285.94
2018-08-30T04:17:35.264Z,100282.36
2018-08-30T04:22:43.001Z,100280.45
2018-08-30T04:25:10.983Z,100278.32
2018-08-30T04:27:38.905Z,100282.01
2018-08-30T04:30:06.964Z,100286.28
2018-08-30T04:32:34.811Z,100288.45
2018-08-30T04:35:02.904Z,100290.00
2018-08-30T04:37:30.739Z,100288.86
2018-08-30T04:39:58.608Z,100286.49
2018-08-30T04:42:26.504Z,100286.56
2018-08-30T04:44:54.449Z,100284.95
2018-08-30T04:47:22.343Z,100284.07
2018-08-30T04:49:50.146Z,100286.28
2018-08-30T04:52:17.963Z,100278.61
2018-08-30T04:54:45.716Z,100286.72
2018-08-30T04:57:13.555Z,100292.50
2018-08-30T04:59:41.303Z,100297.63
2018-08-30T05:02:09.070Z,100299.29
2018-08-30T05:04:36.880Z,100306.62
2018-08-30T05:07:04.874Z,100313.02
2018-08-30T05:09:32.631Z,100308.38
2018-08-30T05:12:00.429Z,100309.26
2018-08-30T05:14:28.308Z,100317.98
2018-08-30T05:16:56.143Z,100313.16
2018-08-30T05:19:24.007Z,100316.41
2018-08-30T05:21:51.854Z,100312.95
2018-08-30T05:24:19.723Z,100317.04
2018-08-30T05:26:47.478Z,100321.31
2018-08-30T05:29:15.274Z,100326.03
2018-08-30T05:31:43.012Z,100323.45
2018-08-30T05:34:10.771Z,100325.81
2018-08-30T05:36:38.682Z,100330.83
2018-08-30T05:39:07.896Z,100335.54
2018-08-30T05:41:35.793Z,100339.74
2018-08-30T05:44:03.623Z,100338.05
2018-08-30T05:46:31.442Z,100343.72
2018-08-30T05:48:59.269Z,100345.82
2018-08-30T05:51:27.087Z,100347.56
2018-08-30T05:53:54.873Z,100341.11
2018-08-30T05:56:22.650Z,100342.66
2018-08-30T05:58:50.395Z,100343.13
2018-08-30T06:01:21.379Z,100349.84
2018-08-30T06:03:49.318Z,100349.95
2018-08-30T06:06:17.121Z,100349.77
2018-08-30T06:08:44.977Z,100351.34
2018-08-30T06:11:12.684Z,100354.15
2018-08-30T06:13:40.430Z,100354.55
2018-08-30T06:16:08.191Z,100359.64
2018-08-30T06:18:35.889Z,100366.67
2018-08-30T06:21:03.773Z,100362.39
2018-08-30T06:23:31.884Z,100372.25
2018-08-30T06:25:59.756Z,100367.82
2018-08-30T06:28:27.530Z,100372.32
2018-08-30T06:30:55.262Z,100375.53
2018-08-30T06:33:23.031Z,100377.56
2018-08-30T06:35:51.197Z,100375.20
2018-08-30T06:38:18.950Z,100375.05
2018-08-30T06:40:46.761Z,100385.77
2018-08-30T06:43:14.642Z,100382.64
2018-08-30T06:45:42.603Z,100378.95
2018-08-30T06:48:10.266Z,100388.06
2018-08-30T06:50:37.987Z,100387.58
2018-08-30T06:53:05.842Z,100387.47
2018-08-30T06:55:33.668Z,100387.73
2018-08-30T06:58:01.367Z,100388.63
2018-08-30T07:00:29.187Z,100392.41
2018-08-30T07:02:56.890Z,100395.26
2018-08-30T07:05:24.633Z,100402.30
2018-08-30T07:07:52.513Z,100401.34
2018-08-30T07:10:20.699Z,100405.84
2018-08-30T07:12:48.400Z,100406.16
2018-08-30T07:15:16.128Z,100407.31
2018-08-30T07:17:43.846Z,100405.25
2018-08-30T07:20:11.619Z,100410.34
2018-08-30T07:22:39.475Z,100409.27
2018-08-30T07:25:07.198Z,100416.72
2018-08-30T07:27:34.978Z,100414.72
2018-08-30T07:30:03.421Z,100424.72
2018-08-30T07:32:31.243Z,100422.72
2018-08-30T07:34:59.114Z,100431.83
2018-08-30T07:37:26.678Z,100431.31
2018-08-30T07:39:54.440Z,100431.42
2018-08-30T07:42:22.171Z,100434.70
2018-08-30T07:44:53.590Z,100436.84
2018-08-30T07:47:21.450Z,100437.43
2018-08-30T07:49:49.199Z,100437.18
2018-08-30T07:52:17.028Z,100441.27
2018-08-30T07:54:44.755Z,100437.40
2018-08-30T07:57:12.479Z,100439.84
2018-08-30T07:59:40.162Z,100443.11
2018-08-30T08:02:07.879Z,100448.39
2018-08-30T08:04:35.578Z,100449.09
2018-08-30T08:07:03.376Z,100448.98
2018-08-30T08:09:31.015Z,100449.17
2018-08-30T08:11:59.693Z,100450.91
2018-08-30T08:14:27.311Z,100460.13
2018-08-30T08:16:56.556Z,100458.17
2018-08-30T08:19:24.282Z,100468.20
2018-08-30T08:21:51.964Z,100466.12
2018-08-30T08:24:19.629Z,100472.36
2018-08-30T08:26:47.403Z,100473.47
2018-08-30T08:29:15.171Z,100473.94
2018-08-30T08:31:42.875Z,100473.69
2018-08-30T08:34:10.611Z,100474.20
2018-08-30T08:36:38.323Z,100474.58
2018-08-30T08:39:06.363Z,100479.45
2018-08-30T08:41:34.114Z,100479.05
2018-08-30T08:44:01.807Z,100475.28
2018-08-30T08:46:29.507Z,100482.17
2018-08-30T08:48:57.247Z,100487.34
2018-08-30T08:51:24.938Z,100483.28
2018-08-30T08:53:52.697Z,100478.89
2018-08-30T08:56:20.367Z,100477.81
2018-08-30T08:58:48.123Z,100479.44
2018-08-30T09:01:15.884Z,100479.58
2018-08-30T09:03:43.820Z,100481.28
2018-08-30T09:06:11.516Z,100478.70
2018-08-30T09:08:39.566Z,100480.19
2018-08-30T09:11:07.436Z,100476.31
2018-08-30T09:13:35.173Z,100475.06
2018-08-30T09:16:15.022Z,100480.34
2018-08-30T09:18:42.713Z,100483.47
2018-08-30T09:21:10.439Z,100482.14
2018-08-30T09:23:38.119Z,100476.43
2018-08-30T09:26:05.846Z,100482.66
2018-08-30T09:28:33.579Z,100481.26
2018-08-30T09:31:01.297Z,100478.79
2018-08-30T09:33:28.954Z,100488.37
2018-08-30T09:35:56.671Z,100482.47
2018-08-30T09:38:24.427Z,100481.55
2018-08-30T09:40:52.162Z,100481.11
2018-08-30T09:43:19.843Z,100475.36
2018-08-30T09:45:47.727Z,100480.23
2018-08-30T09:48:15.768Z,100478.64
2018-08-30T09:50:43.502Z,100473.70
2018-08-30T09:53:11.214Z,100476.53
2018-08-30T09:55:38.990Z,100471.96
2018-08-30T09:58:06.758Z,100480.59
2018-08-30T10:00:40.343Z,100476.80
2018-08-30T10:03:08.099Z,100477.05
2018-08-30T10:05:35.822Z,100473.58
2018-08-30T10:08:03.595Z,100476.87
2018-08-30T10:10:31.287Z,100476.35
2018-08-30T10:12:59.246Z,100474.43
2018-08-30T10:15:26.935Z,100469.71
2018-08-30T10:17:54.648Z,100466.86
2018-08-30T10:20:22.455Z,100468.96
2018-08-30T10:22:50.162Z,100469.48
2018-08-30T10:25:17.898Z,100469.03
2018-08-30T10:27:45.524Z,100462.30
2018-08-30T10:30:13.202Z,100465.55
2018-08-30T10:32:40.948Z,100466.08
2018-08-30T10:35:08.604Z,100460.47
2018-08-30T10:37:36.324Z,100462.82
2018-08-30T10:40:04.059Z,100463.92
2018-08-30T10:42:32.113Z,100462.38
2018-08-30T10:44:59.827Z,100457.75
2018-08-30T10:47:27.534Z,100459.09
2018-08-30T10:49:55.330Z,100452.80
2018-08-30T10:52:22.950Z,100460.60
2018-08-30T10:54:50.643Z,100454.99
2018-08-30T10:57:18.351Z,100455.13
2018-08-30T10:59:46.056Z,100456.03
2018-08-30T11:02:13.827Z,100457.41
2018-08-30T11:04:44.744Z,100454.53
2018-08-30T11:07:12.480Z,100450.48
2018-08-30T11:09:40.187Z,100449.87
2018-08-30T11:12:08.308Z,100444.95
2018-08-30T11:14:36.062Z,100449.22
2018-08-30T11:17:04.087Z,100443.84
2018-08-30T11:19:31.890Z,100444.13
2018-08-30T11:22:00.389Z,100441.18
2018-08-30T11:24:28.146Z,100445.30
2018-08-30T11:26:55.776Z,100440.20
2018-08-30T11:29:23.791Z,100437.77
2018-08-30T11:31:51.502Z,100438.00
2018-08-30T11:34:19.206Z,100434.98
2018-08-30T11:36:46.923Z,100438.13
2018-08-30T11:39:14.611Z,100438.75
2018-08-30T11:41:42.407Z,100436.22
2018-08-30T11:44:10.299Z,100435.50
2018-08-30T11:46:38.015Z,100434.63
2018-08-30T11:49:05.732Z,100432.45
2018-08-30T11:51:33.472Z,100429.26
2018-08-30T11:54:01.558Z,100436.72
2018-08-30T11:56:29.242Z,100429.82
2018-08-30T11:58:57.430Z,100426.89
2018-08-30T12:01:25.178Z,100428.36
2018-08-30T12:03:55.395Z,100423.62
2018-08-30T12:06:26.558Z,100429.18
2018-08-30T12:08:54.398Z,100429.69
2018-08-30T12:11:22.166Z,100427.13
2018-08-30T12:13:50.035Z,100429.27
2018-08-30T12:16:17.750Z,100429.69
2018-08-30T12:18:45.475Z,100430.96
2018-08-30T12:21:13.227Z,100433.97
2018-08-30T12:23:40.922Z,100430.09
2018-08-30T12:26:08.860Z,100427.31
2018-08-30T12:28:37.289Z,100427.92
2018-08-30T12:31:05.043Z,100427.80
2018-08-30T12:33:32.715Z,100426.64
2018-08-30T12:36:00.929Z,100428.73
2018-08-30T12:38:28.942Z,100425.36
2018-08-30T12:40:56.724Z,100422.54
2018-08-30T12:43:24.491Z,100417.73
2018-08-30T12:45:52.161Z,100416.75
2018-08-30T12:48:19.820Z,100416.02
2018-08-30T12:50:47.628Z,100415.21
2018-08-30T12:53:15.514Z,100411.18
2018-08-30T12:55:43.223Z,100409.62
2018-08-30T12:58:11.029Z,100412.17
2018-08-30T13:00:38.697Z,100404.38
2018-08-30T13:03:06.370Z,100405.89
2018-08-30T13:05:34.534Z,100405.95
2018-08-30T13:08:02.321Z,100404.89
2018-08-30T13:10:30.117Z,100402.63
2018-08-30T13:12:57.857Z,100401.05
2018-08-30T13:15:25.662Z,100410.70
2018-08-30T13:17:53.221Z,100392.48
2018-08-30T13:20:21.030Z,100393.11
2018-08-30T13:22:48.767Z,100386.97
2018-08-30T13:25:16.530Z,100389.08
2018-08-30T13:27:44.262Z,100386.76
2018-08-30T13:30:11.997Z,100388.73
2018-08-30T13:32:39.822Z,100384.28
2018-08-30T13:35:07.489Z,100385.82
2018-08-30T13:37:35.175Z,100383.17
2018-08-30T13:40:03.919Z,100382.11
2018-08-30T13:42:31.474Z,100384.70
2018-08-30T13:44:59.313Z,100387.16
2018-08-30T13:47:27.050Z,100381.61
2018-08-30T13:49:54.569Z,100378.19
2018-08-30T13:52:22.277Z,100378.98
2018-08-30T13:54:50.089Z,100383.18
2018-08-30T13:59:45.092Z,100381.21
2018-08-30T14:02:12.440Z,100386.03
2018-08-30T14:04:40.321Z,100385.06
2018-08-30T14:07:11.738Z,100378.26
2018-08-30T14:09:39.408Z,100377.54
2018-08-30T14:12:07.473Z,100375.48
2018-08-30T14:14:35.144Z,100377.92
2018-08-30T14:17:02.955Z,100378.78
2018-08-30T14:19:30.815Z,100386.91
2018-08-30T14:21:58.466Z,100391.95
2018-08-30T14:24:26.489Z,100384.48
2018-08-30T14:26:54.289Z,100382.59
2018-08-30T14:29:22.112Z,100381.27
2018-08-30T14:31:49.799Z,100381.41
2018-08-30T14:34:17.523Z,100385.38
2018-08-30T14:36:45.238Z,100385.95
2018-08-30T14:39:13.140Z,100381.73
2018-08-30T14:41:40.983Z,100382.36
2018-08-30T14:44:08.951Z,100376.45
2018-08-30T14:46:37.015Z,100378.89
2018-08-30T14:49:05.182Z,100375.47
2018-08-30T14:51:32.960Z,100374.98
2018-08-30T14:54:00.762Z,100375.87
2018-08-30T14:56:28.630Z,100375.36
2018-08-30T14:58:56.272Z,100375.61
2018-08-30T15:01:24.027Z,100377.41
2018-08-30T15:03:51.697Z,100380.88
2018-08-30T15:06:19.423Z,100385.45
2018-08-30T15:08:47.319Z,100389.02
2018-08-30T15:11:15.158Z,100393.39
2018-08-30T15:13:42.835Z,100387.87
2018-08-30T15:16:10.528Z,100394.61
2018-08-30T15:18:38.204Z,100394.52
2018-08-30T15:21:05.946Z,100390.02
2018-08-30T15:26:01.620Z,100393.11
2018-08-30T15:28:29.703Z,100401.39
2018-08-30T15:30:57.343Z,100401.00
2018-08-30T15:33:25.083Z,100404.22
2018-08-30T15:35:53.247Z,100403.23
2018-08-30T15:38:20.996Z,100395.28
2018-08-30T15:40:48.759Z,100398.67
2018-08-30T15:43:16.569Z,100394.36
2018-08-30T15:45:44.286Z,100389.94
2018-08-30T15:48:12.196Z,100386.99
2018-08-30T15:50:39.966Z,100396.60
2018-08-30T15:53:07.723Z,100390.99
2018-08-30T15:55:35.491Z,100387.94
2018-08-30T15:58:03.456Z,100383.70
2018-08-30T16:00:31.171Z,100383.37
2018-08-30T16:02:59.107Z,100383.86
2018-08-30T16:05:27.197Z,100382.28
2018-08-30T16:07:54.999Z,100386.33
2018-08-30T16:10:23.660Z,100381.53
2018-08-30T16:12:51.497Z,100385.51
2018-08-30T16:15:54.874Z,100385.61
2018-08-30T16:18:23.267Z,100380.44
2018-08-30T16:20:51.177Z,100385.83
2018-08-30T16:23:28.544Z,100385.90
2018-08-30T16:25:57.053Z,100384.52
2018-08-30T16:28:26.470Z,100386.08
2018-08-30T16:30:55.545Z,100382.19
2018-08-30T16:33:23.543Z,100385.20
2018-08-30T16:35:51.729Z,100388.11
2018-08-30T16:38:19.690Z,100391.16
2018-08-30T16:40:47.447Z,100391.39
2018-08-30T16:43:16.533Z,100398.43
2018-08-30T16:45:44.816Z,100395.77
2018-08-30T16:48:12.677Z,100390.91
2018-08-30T16:50:40.692Z,100389.43
2018-08-30T16:53:11.362Z,100395.94
2018-08-30T16:55:39.603Z,100394.91
2018-08-30T16:58:07.536Z,100397.91
2018-08-30T17:00:35.278Z,100391.52
2018-08-30T17:03:08.393Z,100387.67
2018-08-30T17:05:41.849Z,100383.38
2018-08-30T17:08:09.684Z,100381.83
2018-08-30T17:10:37.466Z,100380.95
2018-08-30T17:13:05.215Z,100378.06
2018-08-30T17:15:32.979Z,100377.48
2018-08-30T17:18:00.815Z,100372.68
2018-08-30T17:20:38.655Z,100381.56
2018-08-30T17:23:06.627Z,100377.48
2018-08-30T17:25:34.850Z,100373.41
2018-08-30T17:28:02.939Z,100375.63
2018-08-30T17:30:30.691Z,100380.23
2018-08-30T17:32:58.500Z,100378.44
2018-08-30T17:35:26.783Z,100380.81
2018-08-30T17:37:54.710Z,100378.00
2018-08-30T17:40:22.585Z,100383.18
2018-08-30T17:42:50.999Z,100385.03
2018-08-30T17:45:19.011Z,100378.90
2018-08-30T17:47:46.944Z,100381.04
2018-08-30T17:50:15.189Z,100383.27
2018-08-30T17:52:42.705Z,100389.02
2018-08-30T17:55:16.411Z,100387.77
2018-08-30T17:57:44.158Z,100387.28
2018-08-30T18:00:12.935Z,100386.03
2018-08-30T18:02:41.731Z,100390.52
2018-08-30T18:05:09.483Z,100394.38
2018-08-30T18:07:37.347Z,100394.38
2018-08-30T18:10:07.461Z,100394.48
2018-08-30T18:12:35.353Z,100393.67
2018-08-30T18:15:03.333Z,100393.52
2018-08-30T18:17:31.102Z,100389.47
2018-08-30T18:19:59.002Z,100388.49
2018-08-30T18:22:26.771Z,100385.77
2018-08-30T18:24:54.623Z,100391.22
2018-08-30T18:27:30.453Z,100399.72
2018-08-30T18:29:58.267Z,100392.27
2018-08-30T18:32:25.959Z,100400.02
2018-08-30T18:34:53.852Z,100401.58
2018-08-30T18:37:21.507Z,100400.70
2018-08-30T18:39:49.315Z,100402.91
2018-08-30T18:42:17.071Z,100405.18
2018-08-30T18:44:44.774Z,100411.54
2018-08-30T18:47:12.483Z,100411.08
2018-08-30T18:49:40.356Z,100410.37
2018-08-30T18:52:08.072Z,100410.20
2018-08-30T18:54:36.159Z,100412.64
2018-08-30T18:57:04.036Z,100413.03
2018-08-30T18:59:32.040Z,100412.35
2018-08-30T19:01:59.962Z,100423.86
2018-08-30T19:04:27.703Z,100422.40
2018-08-30T19:06:55.551Z,100418.54
2018-08-30T19:09:23.288Z,100426.52
2018-08-30T19:11:51.108Z,100428.20
2018-08-30T19:14:18.926Z,100427.02
2018-08-30T19:16:52.662Z,100432.53
2018-08-30T19:19:22.953Z,100431.88
2018-08-30T19:21:50.644Z,100443.72
2018-08-30T19:24:24.207Z,100436.09
2018-08-30T19:26:51.990Z,100439.22
2018-08-30T19:29:19.997Z,100440.26
2018-08-30T19:31:47.811Z,100439.38
2018-08-30T19:34:15.589Z,100437.82
2018-08-30T19:36:43.329Z,100431.40
2018-08-30T19:39:11.898Z,100439.00
2018-08-30T19:41:39.671Z,100438.19
2018-08-30T19:44:08.386Z,100434.55
2018-08-30T19:46:36.115Z,100440.08
2018-08-30T19:49:03.808Z,100441.70
2018-08-30T19:51:31.554Z,100443.13
2018-08-30T19:53:59.219Z,100441.23
2018-08-30T19:56:26.967Z,100447.07
2018-08-30T19:58:54.937Z,100445.17
2018-08-30T20:01:22.626Z,100441.86
2018-08-30T20:03:50.349Z,100443.50
2018-08-30T20:06:18.143Z,100440.77
2018-08-30T20:08:45.821Z,100441.58
2018-08-30T20:11:13.595Z,100441.95
2018-08-30T20:13:41.395Z,100440.94
2018-08-30T20:16:09.135Z,100441.34
2018-08-30T20:18:36.987Z,100440.89
2018-08-30T20:21:04.702Z,100445.57
2018-08-30T20:23:32.447Z,100442.10
2018-08-30T20:26:00.288Z,100441.93
2018-08-30T20:28:27.970Z,100441.12
2018-08-30T20:30:56.051Z,100446.59
2018-08-30T20:33:23.884Z,100445.91
2018-08-30T20:35:51.744Z,100444.30
2018-08-30T20:38:19.667Z,100445.22
2018-08-30T20:40:48.083Z,100443.55
2018-08-30T20:43:15.854Z,100447.31
2018-08-30T20:45:43.571Z,100442.55
2018-08-30T20:48:11.311Z,100440.86
2018-08-30T20:50:39.095Z,100440.58
2018-08-30T20:53:06.804Z,100440.94
2018-08-30T20:55:34.528Z,100441.75
2018-08-30T20:58:02.332Z,100440.54
2018-08-30T21:00:30.028Z,100444.00
2018-08-30T21:02:57.844Z,100442.20
2018-08-30T21:05:25.574Z,100435.48
2018-08-30T21:07:53.575Z,100434.34
2018-08-30T21:10:21.392Z,100431.39
2018-08-30T21:12:49.055Z,100429.87
2018-08-30T21:15:16.840Z,100433.02
2018-08-30T21:17:44.627Z,100427.52
2018-08-30T21:20:12.678Z,100419.59
2018-08-30T21:22:40.415Z,100416.38
2018-08-30T21:25:08.193Z,100415.46
2018-08-30T21:27:35.958Z,100411.41
2018-08-30T21:30:04.372Z,100406.50
2018-08-30T21:32:32.149Z,100408.86
2018-08-30T21:34:59.923Z,100409.38
2018-08-30T21:37:27.894Z,100415.68
2018-08-30T21:39:55.614Z,100422.36
2018-08-30T21:42:23.392Z,100421.36
2018-08-30T21:44:51.123Z,100420.48
2018-08-30T21:47:18.898Z,100420.88
2018-08-30T21:49:46.748Z,100414.02
2018-08-30T21:52:14.770Z,100416.86
2018-08-30T21:54:42.722Z,100415.49
2018-08-30T21:57:10.483Z,100416.52
2018-08-30T21:59:38.194Z,100415.02
2018-08-30T22:02:06.131Z,100410.04
2018-08-30T22:04:33.901Z,100411.38
2018-08-30T22:07:01.691Z,100405.13
2018-08-30T22:09:29.390Z,100405.25
2018-08-30T22:11:57.330Z,100409.97
2018-08-30T22:14:24.993Z,100408.34
2018-08-30T22:16:52.826Z,100419.52
2018-08-30T22:19:20.486Z,100417.93
2018-08-30T22:21:48.175Z,100424.92
2018-08-30T22:24:15.915Z,100431.89
2018-08-30T22:26:43.630Z,100432.27
2018-08-30T22:29:11.332Z,100437.19
2018-08-30T22:31:39.058Z,100445.64
2018-08-30T22:34:07.104Z,100437.91
2018-08-30T22:36:34.935Z,100441.22
2018-08-30T22:39:03.386Z,100444.98
2018-08-30T22:41:31.083Z,100442.58
2018-08-30T22:43:59.108Z,100443.23
2018-08-30T22:46:26.835Z,100449.44
2018-08-30T22:48:54.522Z,100442.84
2018-08-30T22:51:22.304Z,100439.41
2018-08-30T22:53:50.132Z,100431.38
2018-08-30T22:56:17.971Z,100423.36
2018-08-30T22:58:45.791Z,100412.61
2018-08-30T23:01:13.562Z,100399.04
2018-08-30T23:03:41.310Z,100400.98
2018-08-30T23:06:09.602Z,100409.46
2018-08-30T23:08:37.366Z,100408.84
2018-08-30T23:11:05.119Z,100403.53
2018-08-30T23:13:36.335Z,100413.72
2018-08-30T23:16:04.024Z,100409.33
2018-08-30T23:18:31.843Z,100409.66
2018-08-30T23:20:59.568Z,100412.61
2018-08-30T23:23:27.378Z,100412.90
2018-08-30T23:25:55.039Z,100416.59
2018-08-30T23:28:22.807Z,100413.72
2018-08-30T23:30:50.710Z,100418.86
2018-08-30T23:33:18.506Z,100414.74
2018-08-30T23:35:46.270Z,100409.73
2018-08-30T23:38:14.009Z,100412.02
2018-08-30T23:40:41.799Z,100407.81
2018-08-30T23:43:09.571Z,100408.33
2018-08-30T23:45:37.238Z,100410.90
2018-08-30T23:48:05.115Z,100401.39
2018-08-30T23:50:32.825Z,100405.89
2018-08-30T23:53:00.807Z,100405.78
2018-08-30T23:55:28.563Z,100404.09
2018-08-30T23:58:14.307Z,100410.02
